createdAt,value
2022-08-26T00:02:39.919Z,10.30
2022-08-26T00:06:46.356Z,11.65
2022-08-26T00:10:49.773Z,11.35
2022-08-26T00:14:52.646Z,14.45
2022-08-26T00:18:56.017Z,9.90
2022-08-26T00:23:00.285Z,10.38
2022-08-26T00:27:03.054Z,11.35
2022-08-26T00:31:07.147Z,12.25
2022-08-26T00:35:11.847Z,12.80
2022-08-26T00:39:16.014Z,10.30
2022-08-26T00:43:19.882Z,14.48
2022-08-26T00:47:28.509Z,11.73
2022-08-26T00:51:37.142Z,17.63
2022-08-26T00:55:42.994Z,14.48
2022-08-26T00:59:51.900Z,13.77
2022-08-26T01:03:56.450Z,16.42
2022-08-26T01:07:59.374Z,12.63
2022-08-26T01:12:04.847Z,11.43
2022-08-26T01:16:11.647Z,13.05
2022-08-26T01:20:25.771Z,13.40
2022-08-26T01:24:31.196Z,13.73
2022-08-26T01:28:36.778Z,13.63
2022-08-26T01:32:40.958Z,10.10
2022-08-26T01:36:47.926Z,11.38
2022-08-26T01:40:54.931Z,14.00
2022-08-26T01:45:04.439Z,14.20
2022-08-26T01:49:09.040Z,15.27
2022-08-26T01:53:15.787Z,12.80
2022-08-26T01:57:21.175Z,19.70
2022-08-26T02:01:29.207Z,15.00
2022-08-26T02:05:32.234Z,13.35
2022-08-26T02:09:41.277Z,14.98
2022-08-26T02:13:49.437Z,17.83
2022-08-26T02:17:53.904Z,17.08
2022-08-26T02:22:01.513Z,17.42
2022-08-26T02:26:08.750Z,13.88
2022-08-26T02:30:17.161Z,15.00
2022-08-26T02:34:24.416Z,12.50
2022-08-26T02:38:31.174Z,17.85
2022-08-26T02:42:34.110Z,13.60
2022-08-26T02:46:39.098Z,19.85
2022-08-26T02:50:43.399Z,13.35
2022-08-26T02:54:46.280Z,14.82
2022-08-26T02:58:52.380Z,17.88
2022-08-26T03:02:58.093Z,22.45
2022-08-26T03:07:01.034Z,13.35
2022-08-26T03:11:04.238Z,17.65
2022-08-26T03:15:16.647Z,15.43
2022-08-26T03:19:24.041Z,15.43
2022-08-26T03:23:26.989Z,17.15
2022-08-26T03:27:29.787Z,13.35
2022-08-26T03:31:36.150Z,15.18
2022-08-26T03:35:43.034Z,14.73
2022-08-26T03:39:45.866Z,15.85
2022-08-26T03:43:50.746Z,15.25
2022-08-26T03:47:54.004Z,17.05
2022-08-26T03:51:58.330Z,14.23
2022-08-26T03:56:01.240Z,15.75
2022-08-26T04:00:05.803Z,16.20
2022-08-26T04:04:12.389Z,14.70
2022-08-26T04:08:19.705Z,17.80
2022-08-26T04:12:22.475Z,14.90
2022-08-26T04:16:29.539Z,17.30
2022-08-26T04:20:32.449Z,19.63
2022-08-26T04:24:37.132Z,17.30
2022-08-26T04:28:40.124Z,17.17
2022-08-26T04:32:42.886Z,17.58
2022-08-26T04:36:45.745Z,13.80
2022-08-26T04:40:50.079Z,16.85
2022-08-26T04:44:52.897Z,19.08
2022-08-26T04:48:55.690Z,21.95
2022-08-26T04:52:58.442Z,17.38
2022-08-26T04:57:02.545Z,21.52
2022-08-26T05:01:05.780Z,29.13
2022-08-26T05:05:09.711Z,29.17
2022-08-26T05:09:15.279Z,34.20
2022-08-26T05:13:21.169Z,25.27
2022-08-26T05:17:24.273Z,20.33
2022-08-26T05:21:29.046Z,20.73
2022-08-26T05:25:32.032Z,28.40
2022-08-26T05:29:36.296Z,29.00
2022-08-26T05:33:41.311Z,33.55
2022-08-26T05:37:44.545Z,21.48
2022-08-26T05:41:47.520Z,27.08
2022-08-26T05:45:52.102Z,23.38
2022-08-26T05:49:55.398Z,22.58
2022-08-26T05:53:58.376Z,23.80
2022-08-26T05:58:02.728Z,22.38
2022-08-26T06:02:07.073Z,20.67
2022-08-26T06:06:12.940Z,18.35
2022-08-26T06:10:31.590Z,20.08
2022-08-26T06:14:36.037Z,21.25
2022-08-26T06:18:42.544Z,28.45
2022-08-26T06:23:03.048Z,25.40
2022-08-26T06:27:09.901Z,27.95
2022-08-26T06:31:14.605Z,24.00
2022-08-26T06:35:18.954Z,18.52
2022-08-26T06:39:22.110Z,15.85
2022-08-26T06:43:27.425Z,13.35
2022-08-26T06:47:31.420Z,16.05
2022-08-26T06:51:40.766Z,20.55
2022-08-26T06:55:46.837Z,18.50
2022-08-26T06:59:54.572Z,20.25
2022-08-26T07:04:03.545Z,18.83
2022-08-26T07:08:11.928Z,19.30
2022-08-26T07:12:14.956Z,19.00
2022-08-26T07:16:18.626Z,19.98
2022-08-26T07:20:21.896Z,19.33
2022-08-26T07:24:28.426Z,23.10
2022-08-26T07:28:31.840Z,25.13
2022-08-26T07:32:35.388Z,23.73
2022-08-26T07:36:38.260Z,24.67
2022-08-26T07:40:42.495Z,23.80
2022-08-26T07:44:45.303Z,25.40
2022-08-26T07:48:48.849Z,24.42
2022-08-26T07:52:51.695Z,27.65
2022-08-26T07:56:57.260Z,26.60
2022-08-26T08:01:00.589Z,26.75
2022-08-26T08:05:03.532Z,26.70
2022-08-26T08:09:06.977Z,31.40
2022-08-26T08:13:11.707Z,27.85
2022-08-26T08:17:17.774Z,30.13
2022-08-26T08:21:23.688Z,35.20
2022-08-26T08:25:27.053Z,32.92
2022-08-26T08:29:31.286Z,33.70
2022-08-26T08:33:35.014Z,35.97
2022-08-26T08:37:38.121Z,35.67
2022-08-26T08:41:57.520Z,35.17
2022-08-26T08:46:08.828Z,35.72
2022-08-26T08:50:23.657Z,38.63
2022-08-26T08:54:29.085Z,42.40
2022-08-26T08:58:50.069Z,39.75
2022-08-26T09:03:01.919Z,41.45
2022-08-26T09:07:07.957Z,44.22
2022-08-26T09:11:10.951Z,40.33
2022-08-26T09:15:19.546Z,41.47
2022-08-26T09:19:30.990Z,39.35
2022-08-26T09:23:36.626Z,37.45
2022-08-26T09:27:42.819Z,39.88
2022-08-26T09:31:46.125Z,37.05
2022-08-26T09:35:54.223Z,38.70
2022-08-26T09:40:27.754Z,39.65
2022-08-26T09:44:32.110Z,37.47
2022-08-26T09:48:37.984Z,40.33
2022-08-26T09:52:45.245Z,40.67
2022-08-26T09:56:48.150Z,38.90
2022-08-26T10:00:56.338Z,36.67
2022-08-26T10:05:09.185Z,41.42
2022-08-26T10:09:19.476Z,40.50
2022-08-26T10:13:32.975Z,37.65
2022-08-26T10:17:41.338Z,37.70
2022-08-26T10:21:53.110Z,37.20
2022-08-26T10:26:05.283Z,40.33
2022-08-26T10:30:13.448Z,39.90
2022-08-26T10:34:18.066Z,38.65
2022-08-26T10:38:27.202Z,42.50
2022-08-26T10:42:37.619Z,45.45
2022-08-26T10:46:45.926Z,43.67
2022-08-26T10:50:50.376Z,50.75
2022-08-26T10:55:00.678Z,49.80
2022-08-26T10:59:18.003Z,51.85
2022-08-26T11:03:32.546Z,50.63
2022-08-26T11:07:42.081Z,48.78
2022-08-26T11:11:48.802Z,48.17
2022-08-26T11:16:01.182Z,47.20
2022-08-26T11:20:09.213Z,43.85
2022-08-26T11:24:41.757Z,48.42
2022-08-26T11:28:47.710Z,47.83
2022-08-26T11:32:54.825Z,47.78
2022-08-26T11:37:00.054Z,44.63
2022-08-26T11:41:10.012Z,44.38
2022-08-26T11:45:20.410Z,45.75
2022-08-26T11:49:25.601Z,40.35
2022-08-26T11:53:30.258Z,44.65
2022-08-26T11:57:35.176Z,42.17
2022-08-26T12:01:40.656Z,44.53
2022-08-26T12:05:47.721Z,39.58
2022-08-26T12:09:57.054Z,48.20
2022-08-26T12:14:02.652Z,40.58
2022-08-26T12:18:22.090Z,40.92
2022-08-26T12:22:36.006Z,38.85
2022-08-26T12:26:39.527Z,39.95
2022-08-26T12:30:42.902Z,37.33
2022-08-26T12:34:48.964Z,36.13
2022-08-26T12:38:55.461Z,40.38
2022-08-26T12:43:02.286Z,31.95
2022-08-26T12:47:09.154Z,32.08
2022-08-26T12:51:26.381Z,35.10
2022-08-26T12:55:40.300Z,34.65
2022-08-26T12:59:43.167Z,32.67
2022-08-26T13:03:46.602Z,32.28
2022-08-26T13:08:11.419Z,31.08
2022-08-26T13:12:24.984Z,33.75
2022-08-26T13:16:28.398Z,29.63
2022-08-26T13:20:32.186Z,30.70
2022-08-26T13:24:37.964Z,30.48
2022-08-26T13:28:42.605Z,32.55
2022-08-26T13:32:45.405Z,31.35
2022-08-26T13:36:48.802Z,27.60
2022-08-26T13:40:51.601Z,28.73
2022-08-26T13:44:57.996Z,29.17
2022-08-26T13:49:00.824Z,34.55
2022-08-26T13:53:03.785Z,28.48
2022-08-26T13:57:06.855Z,34.70
2022-08-26T14:01:11.214Z,35.60
2022-08-26T14:05:14.204Z,38.60
2022-08-26T14:09:16.988Z,32.20
2022-08-26T14:13:20.270Z,30.85
2022-08-26T14:17:26.137Z,32.97
2022-08-26T14:21:30.894Z,32.15
2022-08-26T14:25:34.499Z,34.17
2022-08-26T14:29:37.382Z,31.60
2022-08-26T14:33:42.286Z,30.35
2022-08-26T14:37:45.286Z,31.67
2022-08-26T14:41:53.952Z,30.73
2022-08-26T14:45:57.666Z,28.63
2022-08-26T14:50:02.468Z,29.08
2022-08-26T14:54:16.016Z,25.00
2022-08-26T14:58:18.790Z,27.13
2022-08-26T15:02:32.394Z,26.42
2022-08-26T15:06:38.118Z,24.60
2022-08-26T15:10:41.330Z,27.83
2022-08-26T15:14:44.171Z,24.25
2022-08-26T15:18:46.960Z,24.55
2022-08-26T15:22:51.176Z,22.02
2022-08-26T15:26:54.371Z,24.85
2022-08-26T15:30:57.535Z,21.38
2022-08-26T15:35:02.038Z,22.67
2022-08-26T15:39:08.849Z,19.92
2022-08-26T15:43:27.841Z,25.23
2022-08-26T15:47:31.378Z,21.73
2022-08-26T15:51:45.692Z,23.38
2022-08-26T15:55:50.666Z,21.88
2022-08-26T15:59:55.465Z,21.63
2022-08-26T16:03:58.582Z,18.48
2022-08-26T16:08:01.883Z,19.38
2022-08-26T16:12:06.514Z,16.13
2022-08-26T16:16:10.008Z,24.40
2022-08-26T16:20:13.150Z,20.88
2022-08-26T16:24:16.119Z,16.58
2022-08-26T16:28:26.228Z,21.38
2022-08-26T16:32:31.281Z,19.65
2022-08-26T16:36:35.138Z,17.90
2022-08-26T16:40:38.589Z,17.35
2022-08-26T16:44:45.178Z,16.30
2022-08-26T16:48:48.703Z,19.35
2022-08-26T16:52:55.558Z,17.77
2022-08-26T16:56:58.857Z,18.42
2022-08-26T17:01:02.961Z,18.33
2022-08-26T17:05:07.041Z,11.13
2022-08-26T17:09:09.893Z,8.95
2022-08-26T17:13:12.754Z,7.13
2022-08-26T17:17:28.173Z,8.75
2022-08-26T17:21:32.633Z,7.10
2022-08-26T17:25:35.406Z,7.38
2022-08-26T17:29:38.217Z,7.00
2022-08-26T17:33:42.327Z,7.68
2022-08-26T17:37:46.481Z,7.72
2022-08-26T17:41:49.233Z,8.73
2022-08-26T17:45:52.601Z,10.65
2022-08-26T17:49:56.780Z,7.57
2022-08-26T17:53:59.658Z,9.10
2022-08-26T17:58:03.946Z,10.90
2022-08-26T18:02:10.077Z,9.95
2022-08-26T18:06:15.205Z,9.18
2022-08-26T18:10:19.753Z,9.23
2022-08-26T18:14:22.563Z,7.30
2022-08-26T18:18:25.362Z,11.23
2022-08-26T18:22:29.510Z,7.40
2022-08-26T18:26:34.389Z,7.68
2022-08-26T18:30:37.212Z,7.13
2022-08-26T18:34:40.150Z,8.65
2022-08-26T18:38:44.299Z,6.80
2022-08-26T18:42:54.065Z,7.85
2022-08-26T18:46:57.085Z,9.38
2022-08-26T18:51:00.240Z,8.90
2022-08-26T18:55:05.192Z,7.75
2022-08-26T18:59:09.220Z,7.35
2022-08-26T19:03:18.821Z,9.60
2022-08-26T19:07:22.386Z,7.40
2022-08-26T19:11:31.319Z,6.82
2022-08-26T19:15:38.650Z,7.65
2022-08-26T19:19:41.544Z,7.78
2022-08-26T19:23:45.134Z,8.57
2022-08-26T19:27:49.364Z,9.63
2022-08-26T19:31:52.251Z,11.75
2022-08-26T19:35:55.770Z,13.82
2022-08-26T19:39:58.599Z,9.35
2022-08-26T19:44:03.982Z,12.63
2022-08-26T19:48:07.010Z,15.90
2022-08-26T19:52:11.003Z,15.98
2022-08-26T19:56:15.027Z,12.48
2022-08-26T20:00:21.670Z,14.35
2022-08-26T20:04:24.463Z,19.60
2022-08-26T20:08:30.613Z,15.05
2022-08-26T20:12:35.474Z,12.95
2022-08-26T20:16:39.641Z,13.38
2022-08-26T20:21:00.205Z,16.42
2022-08-26T20:25:03.015Z,12.50
2022-08-26T20:29:06.901Z,16.13
2022-08-26T20:33:10.998Z,16.40
2022-08-26T20:37:13.810Z,12.35
2022-08-26T20:41:17.157Z,11.07
2022-08-26T20:45:20.152Z,13.38
2022-08-26T20:49:24.246Z,13.93
2022-08-26T20:53:27.676Z,14.48
2022-08-26T20:57:30.453Z,12.40
2022-08-26T21:01:35.394Z,11.88
2022-08-26T21:05:39.531Z,11.77
2022-08-26T21:09:42.449Z,12.43
2022-08-26T21:14:04.307Z,11.18
2022-08-26T21:18:08.259Z,10.45
2022-08-26T21:22:12.336Z,9.02
2022-08-26T21:26:17.185Z,9.68
2022-08-26T21:30:20.344Z,11.10
2022-08-26T21:34:23.090Z,14.35
2022-08-26T21:38:28.408Z,7.90
2022-08-26T21:42:33.532Z,9.80
2022-08-26T21:46:37.287Z,8.52
2022-08-26T21:50:40.146Z,9.10
2022-08-26T21:54:49.448Z,11.07
2022-08-26T21:58:54.879Z,8.23
2022-08-26T22:03:00.609Z,9.45
2022-08-26T22:07:04.246Z,8.40
2022-08-26T22:11:09.480Z,8.00
2022-08-26T22:15:12.957Z,8.20
2022-08-26T22:19:17.487Z,10.50
2022-08-26T22:23:21.839Z,9.73
2022-08-26T22:27:26.319Z,8.80
2022-08-26T22:31:38.308Z,7.88
2022-08-26T22:35:43.127Z,9.15
2022-08-26T22:39:46.222Z,9.63
2022-08-26T22:43:50.450Z,8.25
2022-08-26T22:47:53.300Z,8.02
2022-08-26T22:51:56.092Z,9.65
2022-08-26T22:55:59.318Z,7.28
2022-08-26T23:00:06.299Z,7.57
2022-08-26T23:04:09.592Z,6.72
2022-08-26T23:08:13.461Z,8.07
2022-08-26T23:12:16.427Z,5.97
2022-08-26T23:16:21.094Z,9.73
2022-08-26T23:20:24.246Z,8.57
2022-08-26T23:24:27.010Z,9.20
2022-08-26T23:28:30.014Z,7.35
2022-08-26T23:32:34.151Z,9.05
2022-08-26T23:36:37.175Z,6.32
2022-08-26T23:40:40.647Z,9.18
2022-08-26T23:44:43.607Z,8.43
2022-08-26T23:48:48.319Z,8.73
2022-08-26T23:53:06.638Z,6.50
2022-08-26T23:57:10.498Z,6.88
